Airfield :
LOGIN :

Register | Disclaimer

   EN    FR    IT 

 










Legend :    VFR   Marginal VFR   IFR   Intensive IFR   Very Intensive IFR
Visi :
Ceiling :
>= 8 km
>= 3000ft
5 to 8 km
1000 to 3000 ft
1500m to 5 km
500 to 1000 ft
800 to 1500m
200 to 500 ft
< 800m
< 200 ft
Symbols :   Thunderstorms  Fog  Heavy snow  Heavy precipitations  Wind > 20 kt
SIGMETs :     Misc.  Thunderstorms  Icing  Turbulence  Mountain Waves  Volcanic Ashes







- Airport Elevation : 436 ft
- IATA code : BTS


LZIB - Bratislava

CURRENT METAR :
  • 201430Z 33014KT 9999 FEW024 SCT030 BKN057 13/08 Q1015 NOSIG

EXPIRED METARs :
  • 201400Z 32016KT 9999 FEW024 SCT033 BKN055 13/09 Q1015 NOSIG
  • 201330Z 33014KT 9999 FEW024 SCT030 BKN055 13/08 Q1015 NOSIG
  • 201300Z 33014KT 9999 FEW021 SCT028 BKN055 13/09 Q1015 NOSIG
  • 201230Z 33016KT 9999 FEW021 SCT026 BKN053 13/08 Q1015 NOSIG
  • 201200Z 33016KT 9999 FEW020 BKN026 BKN050 13/08 Q1015 NOSIG
  • 201130Z 34020KT 9999 FEW013 SCT020 BKN026 13/08 Q1015 NOSIG

TAF TAF LZIB
Valid from the 20 at 12:00 until the 21 at 12:00 UTC


201100Z 2012/2112 34018KT 9999 BKN020 BKN036
TEMPO 2012/2020 35020G30KT -RA SCT015 BKN020
BECMG 2022/2100 33012KT FEW030 BKN080
No reported NOTAMs for that airfield.



MET'MAP, your aeronautical weather chart ! - Copyright ORBIFLY December 2007 - Disclaimer

ORBIFLY MET'MAP TEAM :

Programming & Development : Alexandra Zaïnal
Concept & Development : Baudouin d'Aumeries
Co-Development & Prog : Marc-Olivier Méhu
Technical & hardware support : Manuel Goepfert

Contact : metmap@orbifly.com




SOURCES & CREDITS :

   NOAA